Time;durP1;ratioP1;P1;durP2;ratioP2;P2;SDS_P1;SDS_P2;PMS_P1;PMS_P2;Temp;Humidity;BMP_temperature;BMP_pressure;BME280_temperature;BME280_humidity;BME280_pressure;Samples;Min_cycle;Max_cycle;Signal;HPM_P1;HPM_P2
2021/07/13 00:00:54;;;;;;;14.18;12.88;;;21.20;95.30;;;;;;4990975;28;20022;-90
2021/07/13 00:03:20;;;;;;;15.30;13.80;;;21.20;95.30;;;;;;4993932;28;20030;-88
2021/07/13 00:05:45;;;;;;;14.00;12.77;;;21.10;95.30;;;;;;4993841;28;20057;-90
2021/07/13 00:08:11;;;;;;;14.48;13.18;;;21.10;95.30;;;;;;5010511;28;20459;-89
2021/07/13 00:10:41;;;;;;;14.52;13.23;;;21.10;95.30;;;;;;4980787;28;20383;-89
2021/07/13 00:13:06;;;;;;;14.57;13.18;;;21.10;95.30;;;;;;5011865;28;20387;-89
2021/07/13 00:15:35;;;;;;;14.40;12.88;;;21.10;95.30;;;;;;5009295;28;20026;-89
2021/07/13 00:18:02;;;;;;;14.32;12.77;;;21.00;95.30;;;;;;5013095;28;20048;-89
2021/07/13 00:20:28;;;;;;;14.07;12.60;;;21.00;95.40;;;;;;4979098;28;20054;-89
2021/07/13 00:22:54;;;;;;;13.70;12.40;;;21.00;95.40;;;;;;5013299;28;20049;-89
2021/07/13 00:25:20;;;;;;;14.02;12.73;;;21.00;95.40;;;;;;5011729;28;20491;-90
2021/07/13 00:27:47;;;;;;;13.32;12.13;;;21.00;95.50;;;;;;4995730;28;20030;-89
2021/07/13 00:30:16;;;;;;;14.15;12.55;;;21.00;95.50;;;;;;4995535;28;20065;-89
2021/07/13 00:32:42;;;;;;;14.13;12.80;;;21.00;95.50;;;;;;4992319;28;20022;-90
2021/07/13 00:35:09;;;;;;;14.05;12.75;;;21.00;95.50;;;;;;4987586;28;20448;-88
2021/07/13 00:37:34;;;;;;;15.27;13.82;;;21.00;95.50;;;;;;5012278;28;20026;-89
2021/07/13 00:40:00;;;;;;;15.05;13.65;;;20.90;95.50;;;;;;4995434;28;20034;-90
2021/07/13 00:42:26;;;;;;;14.30;12.90;;;20.90;95.60;;;;;;5028338;28;20109;-87
2021/07/13 00:44:52;;;;;;;15.13;13.75;;;20.90;95.60;;;;;;4995372;28;20045;-87
2021/07/13 00:47:20;;;;;;;14.93;13.48;;;20.90;95.70;;;;;;4981640;28;20392;-89
2021/07/13 00:49:46;;;;;;;15.10;13.70;;;20.90;95.70;;;;;;5008253;28;20031;-89
2021/07/13 00:52:13;;;;;;;14.90;13.50;;;20.90;95.70;;;;;;5011848;28;20116;-90
2021/07/13 00:54:40;;;;;;;15.90;14.40;;;20.90;95.80;;;;;;4995524;28;20026;-89
2021/07/13 00:57:08;;;;;;;15.55;14.10;;;20.90;95.80;;;;;;5011681;28;20029;-88
2021/07/13 00:59:37;;;;;;;15.25;13.80;;;20.90;95.80;;;;;;4996458;28;20081;-88
2021/07/13 01:02:04;;;;;;;15.75;14.15;;;20.80;95.80;;;;;;5014907;28;20024;-88
2021/07/13 01:04:30;;;;;;;15.45;13.95;;;20.90;95.80;;;;;;4999891;28;20032;-88
2021/07/13 01:07:28;;;;;;;15.73;14.15;;;20.80;95.80;;;;;;5032313;28;20028;-88
2021/07/13 01:10:09;;;;;;;15.68;14.15;;;20.80;95.80;;;;;;5012228;28;20168;-88
2021/07/13 01:12:44;;;;;;;15.05;13.75;;;20.80;95.90;;;;;;5015313;28;20488;-88
2021/07/13 01:15:10;;;;;;;15.40;14.00;;;20.80;95.90;;;;;;5015397;28;20022;-88
2021/07/13 01:18:16;;;;;;;15.70;14.20;;;20.80;95.90;;;;;;5015463;28;20037;-88
2021/07/13 01:20:54;;;;;;;15.90;14.40;;;20.80;95.80;;;;;;4975238;28;20015;-88
2021/07/13 01:23:50;;;;;;;15.50;14.05;;;20.80;95.80;;;;;;5022982;28;20034;-88
2021/07/13 01:26:39;;;;;;;15.70;14.20;;;20.70;95.80;;;;;;5022092;28;20041;-89
2021/07/13 01:29:12;;;;;;;16.23;14.63;;;20.70;95.90;;;;;;5015158;28;20541;-89
2021/07/13 01:31:41;;;;;;;15.73;14.07;;;20.70;95.90;;;;;;5031817;28;20026;-89
2021/07/13 01:34:54;;;;;;;16.45;14.85;;;20.70;95.90;;;;;;5015018;28;20021;-88
2021/07/13 01:37:21;;;;;;;16.33;14.82;;;20.70;95.90;;;;;;5031301;28;20033;-88
2021/07/13 01:39:51;;;;;;;17.00;15.40;;;20.70;95.90;;;;;;5032257;28;20463;-88
2021/07/13 01:42:18;;;;;;;15.73;14.23;;;20.60;95.90;;;;;;5017228;28;20032;-89
2021/07/13 01:44:47;;;;;;;16.17;14.68;;;20.60;96.00;;;;;;5018901;28;20380;-89
2021/07/13 01:47:13;;;;;;;16.40;14.80;;;20.60;96.00;;;;;;5018184;28;20033;-89
2021/07/13 01:49:40;;;;;;;16.05;14.55;;;20.60;95.90;;;;;;5001088;28;20029;-88
2021/07/13 01:52:08;;;;;;;15.35;13.85;;;20.60;96.00;;;;;;4998684;28;20022;-89
2021/07/13 01:54:34;;;;;;;15.60;14.15;;;20.60;96.00;;;;;;4998756;28;20367;-89
2021/07/13 01:57:00;;;;;;;15.00;13.55;;;20.60;96.00;;;;;;5014915;28;20022;-89
2021/07/13 01:59:27;;;;;;;15.77;14.27;;;20.60;96.00;;;;;;4982259;28;20100;-89
2021/07/13 02:02:02;;;;;;;16.45;14.90;;;20.60;96.00;;;;;;5014729;28;20018;-88
2021/07/13 02:04:33;;;;;;;15.32;13.93;;;20.50;96.00;;;;;;4998542;28;20383;-89
2021/07/13 02:07:02;;;;;;;15.10;13.65;;;20.50;96.00;;;;;;5015601;28;20468;-89
2021/07/13 02:09:28;;;;;;;15.52;14.13;;;20.60;96.10;;;;;;5014294;28;20058;-89
2021/07/13 02:11:56;;;;;;;16.17;14.57;;;20.50;96.10;;;;;;5030613;28;20059;-88
2021/07/13 02:14:22;;;;;;;15.27;13.88;;;20.50;96.10;;;;;;4998015;28;20120;-89
2021/07/13 02:16:48;;;;;;;14.95;13.55;;;20.50;96.10;;;;;;5014239;28;20595;-89
2021/07/13 02:19:14;;;;;;;15.57;14.07;;;20.50;96.10;;;;;;5005107;28;20105;-89
2021/07/13 02:21:39;;;;;;;15.23;13.82;;;20.50;96.20;;;;;;5010767;28;20075;-88
2021/07/13 02:24:06;;;;;;;15.70;14.20;;;20.50;96.20;;;;;;5030744;28;20026;-89
2021/07/13 02:26:47;;;;;;;14.63;13.15;;;20.50;96.20;;;;;;5013973;28;20543;-88
2021/07/13 02:29:18;;;;;;;15.30;13.90;;;20.50;96.20;;;;;;5014053;28;20030;-89
2021/07/13 02:31:51;;;;;;;17.55;14.70;;;20.50;96.20;;;;;;5013620;28;20034;-88
2021/07/13 02:34:20;;;;;;;15.35;13.90;;;20.40;96.20;;;;;;5013769;28;20022;-88
2021/07/13 02:36:49;;;;;;;15.52;13.93;;;20.40;96.20;;;;;;5013677;28;20029;-88
2021/07/13 02:39:17;;;;;;;15.40;13.95;;;20.40;96.30;;;;;;5030110;28;20034;-89
2021/07/13 02:41:45;;;;;;;15.90;14.38;;;20.40;96.20;;;;;;4997583;28;20494;-89
2021/07/13 02:44:12;;;;;;;15.88;14.38;;;20.30;96.20;;;;;;5013269;28;20041;-88
2021/07/13 02:46:41;;;;;;;16.13;14.45;;;20.30;96.30;;;;;;5013567;28;20018;-88
2021/07/13 02:49:10;;;;;;;15.82;14.32;;;20.30;96.30;;;;;;4997412;28;20044;-88
2021/07/13 02:51:36;;;;;;;15.18;13.68;;;20.30;96.40;;;;;;5013478;28;20068;-88
2021/07/13 02:54:04;;;;;;;15.02;13.52;;;20.30;96.40;;;;;;5013268;28;20028;-88
2021/07/13 02:56:30;;;;;;;14.73;13.23;;;20.30;96.40;;;;;;4999466;28;20487;-89
2021/07/13 02:58:58;;;;;;;14.85;13.45;;;20.30;96.40;;;;;;5008386;28;20084;-88
2021/07/13 03:01:24;;;;;;;14.32;13.02;;;20.30;96.40;;;;;;5014435;28;20108;-89
2021/07/13 03:03:51;;;;;;;16.17;14.30;;;20.30;96.50;;;;;;4996832;28;20065;-89
2021/07/13 03:06:19;;;;;;;15.52;14.02;;;20.30;96.50;;;;;;4996631;28;20026;-88
2021/07/13 03:08:45;;;;;;;14.38;12.98;;;20.20;96.40;;;;;;5013026;28;20029;-89
2021/07/13 03:11:11;;;;;;;14.18;12.88;;;20.20;96.50;;;;;;5012977;28;20022;-88
2021/07/13 03:13:37;;;;;;;14.90;13.50;;;20.30;96.60;;;;;;4996756;28;20479;-89
2021/07/13 03:16:04;;;;;;;16.52;13.55;;;20.20;96.50;;;;;;5029701;28;20084;-89
2021/07/13 03:18:30;;;;;;;13.23;12.02;;;20.20;96.60;;;;;;5029196;28;20042;-88
2021/07/13 03:21:00;;;;;;;13.48;12.27;;;20.20;96.50;;;;;;5013116;28;20383;-88
2021/07/13 03:23:27;;;;;;;12.95;11.75;;;20.20;96.50;;;;;;5012070;28;20021;-88
2021/07/13 03:25:54;;;;;;;13.23;11.93;;;20.20;96.60;;;;;;4996492;28;20029;-88
2021/07/13 03:28:22;;;;;;;14.10;12.70;;;20.20;96.60;;;;;;4996572;28;20119;-88
2021/07/13 03:30:52;;;;;;;15.07;13.60;;;20.20;96.60;;;;;;4980241;28;20026;-88
2021/07/13 03:33:17;;;;;;;14.90;13.40;;;20.20;96.60;;;;;;5012554;28;20032;-88
2021/07/13 03:35:43;;;;;;;14.50;13.15;;;20.20;96.70;;;;;;4996257;28;20121;-88
2021/07/13 03:38:10;;;;;;;14.88;13.48;;;20.20;96.90;;;;;;5029137;28;20034;-88
2021/07/13 03:40:36;;;;;;;15.75;14.10;;;20.10;96.70;;;;;;5014348;28;20022;-88
2021/07/13 03:43:02;;;;;;;15.07;13.52;;;20.10;96.70;;;;;;5001396;28;20488;-88
2021/07/13 03:45:29;;;;;;;16.38;14.88;;;20.10;96.80;;;;;;4997523;28;20046;-88
2021/07/13 03:48:00;;;;;;;15.02;13.60;;;20.10;97.10;;;;;;5017526;28;20037;-88
2021/07/13 03:50:29;;;;;;;15.45;13.57;;;20.10;96.80;;;;;;5013506;28;20057;-88
2021/07/13 03:52:55;;;;;;;16.60;14.90;;;20.10;96.90;;;;;;5013306;28;20021;-88
2021/07/13 03:55:21;;;;;;;15.57;14.07;;;20.10;96.90;;;;;;4996293;28;20034;-88
2021/07/13 03:57:48;;;;;;;15.27;13.82;;;20.10;96.90;;;;;;5013268;28;20083;-89
2021/07/13 04:00:16;;;;;;;15.73;14.13;;;20.10;96.90;;;;;;5013446;28;20026;-88
2021/07/13 04:02:43;;;;;;;16.05;14.48;;;20.10;97.00;;;;;;5012484;28;20168;-88
2021/07/13 04:05:09;;;;;;;16.40;14.90;;;20.10;97.00;;;;;;5012311;28;20036;-89
2021/07/13 04:07:35;;;;;;;14.98;13.57;;;20.10;97.00;;;;;;4995951;28;20192;-88
2021/07/13 04:10:04;;;;;;;15.45;13.95;;;20.10;97.00;;;;;;5011944;28;20049;-88
2021/07/13 04:12:29;;;;;;;15.27;13.68;;;20.10;97.00;;;;;;5028558;28;20026;-88
2021/07/13 04:14:55;;;;;;;15.52;14.02;;;20.10;97.00;;;;;;4995657;28;20079;-88
2021/07/13 04:17:21;;;;;;;15.80;14.30;;;20.10;97.00;;;;;;4995663;28;20476;-87
2021/07/13 04:19:46;;;;;;;15.40;13.90;;;20.10;97.00;;;;;;4979485;28;20036;-87
2021/07/13 04:22:12;;;;;;;15.52;14.02;;;20.10;97.00;;;;;;4995819;28;20034;-88
2021/07/13 04:24:37;;;;;;;15.88;14.38;;;20.10;97.00;;;;;;5012018;28;20025;-87
2021/07/13 04:27:04;;;;;;;15.80;14.20;;;20.20;97.10;;;;;;5028294;28;20030;-88
2021/07/13 04:29:29;;;;;;;14.93;13.52;;;20.10;97.10;;;;;;4995679;28;20038;-88
2021/07/13 04:31:55;;;;;;;15.98;14.48;;;20.10;97.10;;;;;;4995710;28;20080;-88
2021/07/13 04:34:21;;;;;;;14.93;13.52;;;20.10;97.10;;;;;;4992435;28;20038;-89
2021/07/13 04:36:46;;;;;;;15.38;13.85;;;20.10;97.10;;;;;;4990407;28;20034;-88
2021/07/13 04:39:12;;;;;;;15.02;13.60;;;20.20;97.20;;;;;;4995217;28;20048;-87
2021/07/13 04:41:38;;;;;;;15.57;14.07;;;20.20;97.20;;;;;;4995195;28;20113;-88
2021/07/13 04:44:04;;;;;;;16.50;14.80;;;20.20;97.20;;;;;;5013938;28;20479;-89
2021/07/13 04:46:30;;;;;;;15.70;14.18;;;20.10;97.20;;;;;;5011936;28;20030;-89
2021/07/13 04:48:56;;;;;;;15.40;13.98;;;20.10;97.20;;;;;;5011743;28;20025;-88
2021/07/13 04:51:23;;;;;;;16.35;14.65;;;20.20;97.30;;;;;;5011540;28;20065;-89
2021/07/13 04:53:49;;;;;;;16.75;15.05;;;20.20;97.30;;;;;;5012562;28;20037;-88
2021/07/13 04:56:15;;;;;;;16.25;14.75;;;20.20;97.30;;;;;;5012816;28;20026;-88
2021/07/13 04:58:40;;;;;;;17.20;15.43;;;20.20;97.40;;;;;;5035567;22;20054;-85
2021/07/13 05:01:06;;;;;;;17.05;15.25;;;20.10;97.40;;;;;;4979485;28;20410;-85
2021/07/13 05:03:32;;;;;;;16.95;15.25;;;20.20;97.40;;;;;;4995791;28;20038;-86
2021/07/13 05:05:57;;;;;;;18.88;16.92;;;20.20;97.40;;;;;;5013296;28;20038;-84
2021/07/13 05:08:23;;;;;;;19.27;17.13;;;20.20;97.40;;;;;;4995777;28;20034;-85
2021/07/13 05:10:50;;;;;;;18.40;16.60;;;20.20;97.70;;;;;;4978995;28;20495;-84
2021/07/13 05:13:15;;;;;;;20.25;18.15;;;20.20;97.50;;;;;;5025634;28;20113;-84
2021/07/13 05:15:41;;;;;;;21.85;19.60;;;20.20;97.60;;;;;;4985042;28;20053;-85
2021/07/13 05:18:11;;;;;;;21.60;19.40;;;20.20;97.60;;;;;;4979617;28;20022;-85
2021/07/13 05:20:40;;;;;;;22.10;19.75;;;20.20;97.60;;;;;;4996178;28;20497;-85
2021/07/13 05:23:09;;;;;;;24.02;21.50;;;20.20;97.60;;;;;;5011983;28;20014;-85
2021/07/13 05:25:36;;;;;;;25.83;23.02;;;20.20;97.60;;;;;;4996113;28;20037;-85
2021/07/13 05:28:02;;;;;;;24.13;21.63;;;20.20;97.70;;;;;;5012002;28;20400;-85
2021/07/13 05:30:28;;;;;;;24.25;21.75;;;20.20;97.70;;;;;;5028289;28;20077;-85
2021/07/13 05:32:54;;;;;;;23.73;21.27;;;20.20;97.70;;;;;;5002289;28;20434;-86
2021/07/13 05:35:21;;;;;;;24.23;21.73;;;20.30;98.00;;;;;;4992197;28;20026;-84
2021/07/13 05:37:47;;;;;;;25.13;22.52;;;20.20;97.70;;;;;;5010995;28;20022;-84
2021/07/13 05:40:14;;;;;;;24.83;22.23;;;20.30;97.80;;;;;;5011167;28;20080;-85
2021/07/13 05:42:41;;;;;;;24.42;21.83;;;20.30;98.10;;;;;;4995316;28;20045;-85
2021/07/13 05:45:08;;;;;;;24.92;22.35;;;20.30;97.80;;;;;;5009026;28;20048;-85
2021/07/13 05:47:34;;;;;;;27.58;24.70;;;20.30;97.80;;;;;;5015429;28;20517;-85
2021/07/13 05:50:00;;;;;;;25.77;23.08;;;20.30;97.80;;;;;;4992629;28;20116;-85
2021/07/13 05:52:26;;;;;;;26.27;23.50;;;20.30;97.80;;;;;;5014823;28;20112;-85
2021/07/13 05:54:52;;;;;;;25.55;22.92;;;20.30;97.80;;;;;;5014087;28;20156;-85
2021/07/13 05:57:18;;;;;;;26.77;23.98;;;20.30;97.80;;;;;;4996945;28;20034;-86
2021/07/13 05:59:44;;;;;;;26.27;23.50;;;20.20;97.80;;;;;;5016110;28;20053;-85
2021/07/13 06:02:10;;;;;;;26.70;23.80;;;20.30;97.90;;;;;;5028520;28;20030;-85
2021/07/13 06:04:35;;;;;;;27.20;24.42;;;20.20;97.90;;;;;;5005792;28;20363;-85
2021/07/13 06:07:01;;;;;;;28.20;24.92;;;20.30;97.90;;;;;;5014389;28;20030;-85
2021/07/13 06:09:27;;;;;;;29.55;25.63;;;20.20;97.90;;;;;;4998238;28;20483;-85
2021/07/13 06:11:54;;;;;;;31.85;28.20;;;20.20;97.90;;;;;;5000476;28;20125;-85
2021/07/13 06:14:20;;;;;;;31.42;27.15;;;20.20;97.90;;;;;;4998117;28;20487;-85
2021/07/13 06:16:46;;;;;;;32.33;26.88;;;20.20;97.90;;;;;;4994753;28;20113;-84
2021/07/13 06:19:11;;;;;;;31.98;27.25;;;20.20;97.90;;;;;;4980059;28;20117;-84
2021/07/13 06:21:37;;;;;;;33.03;26.67;;;20.20;98.00;;;;;;4981803;28;20026;-85
2021/07/13 06:24:03;;;;;;;33.00;26.38;;;20.20;98.00;;;;;;4997926;28;20030;-85
2021/07/13 06:26:29;;;;;;;33.40;27.95;;;20.20;98.00;;;;;;4974902;28;20026;-85
2021/07/13 06:28:54;;;;;;;35.60;28.88;;;20.20;98.00;;;;;;5003296;28;20026;-85
2021/07/13 06:31:20;;;;;;;36.63;29.20;;;20.30;98.10;;;;;;4995874;28;20124;-84
2021/07/13 06:33:46;;;;;;;36.80;29.33;;;20.20;98.00;;;;;;4980622;28;20126;-84
2021/07/13 06:36:11;;;;;;;38.53;30.23;;;20.30;98.10;;;;;;4997173;28;20026;-85
2021/07/13 06:38:37;;;;;;;37.75;29.67;;;20.30;98.10;;;;;;5013037;28;20018;-85
2021/07/13 06:41:03;;;;;;;33.72;28.08;;;20.20;98.30;;;;;;4979463;28;20037;-84
2021/07/13 06:43:28;;;;;;;36.72;28.40;;;20.30;98.10;;;;;;4995454;28;20042;-84
2021/07/13 06:45:54;;;;;;;34.80;27.38;;;20.30;98.10;;;;;;5013132;28;20113;-85
2021/07/13 06:48:20;;;;;;;35.35;28.02;;;20.30;98.10;;;;;;4997154;28;20383;-85
2021/07/13 06:50:46;;;;;;;35.60;28.17;;;20.30;98.40;;;;;;5001017;28;20037;-82
2021/07/13 06:53:11;;;;;;;37.47;28.88;;;20.20;98.10;;;;;;5006958;28;20022;-84
2021/07/13 06:55:37;;;;;;;38.17;28.83;;;20.30;98.20;;;;;;5008950;28;20069;-84
2021/07/13 06:58:03;;;;;;;33.83;27.10;;;20.30;98.20;;;;;;4997457;28;20395;-84
2021/07/13 07:00:28;;;;;;;34.88;27.70;;;20.20;98.20;;;;;;4997336;28;20181;-84
2021/07/13 07:02:54;;;;;;;32.33;26.40;;;20.30;98.20;;;;;;4985159;28;20014;-84
2021/07/13 07:05:20;;;;;;;35.33;26.73;;;20.30;98.20;;;;;;4997363;28;20026;-84
2021/07/13 07:07:48;;;;;;;34.65;27.63;;;20.30;98.20;;;;;;4993722;28;20632;-84
2021/07/13 07:10:15;;;;;;;34.28;25.83;;;20.30;98.30;;;;;;5013452;28;20029;-84
2021/07/13 07:12:44;;;;;;;33.53;26.38;;;20.30;98.30;;;;;;5001549;28;20030;-85
2021/07/13 07:15:12;;;;;;;33.65;26.42;;;20.30;98.30;;;;;;5012813;28;20454;-85
2021/07/13 07:17:46;;;;;;;31.63;25.58;;;20.30;98.30;;;;;;5002766;28;20031;-85
2021/07/13 07:20:18;;;;;;;33.72;25.23;;;20.30;98.30;;;;;;4993625;28;20045;-85
2021/07/13 07:22:44;;;;;;;30.80;25.88;;;20.30;98.40;;;;;;5011485;28;20113;-85
2021/07/13 07:25:10;;;;;;;29.70;23.73;;;20.40;98.40;;;;;;4995686;28;20025;-85
2021/07/13 07:27:37;;;;;;;29.92;24.15;;;20.40;98.40;;;;;;5012434;28;20029;-84
2021/07/13 07:30:06;;;;;;;31.40;25.08;;;20.40;98.50;;;;;;5011659;28;20458;-84
2021/07/13 07:32:33;;;;;;;29.33;24.33;;;20.40;98.50;;;;;;5006616;28;20018;-83
2021/07/13 07:34:59;;;;;;;29.63;24.60;;;20.40;98.50;;;;;;5007548;28;20037;-84
2021/07/13 07:37:25;;;;;;;29.00;23.05;;;20.40;98.50;;;;;;5010620;28;20090;-84
2021/07/13 07:39:51;;;;;;;33.30;26.00;;;20.40;98.50;;;;;;5003588;28;20056;-84
2021/07/13 07:42:16;;;;;;;31.45;26.23;;;20.50;98.60;;;;;;5008262;28;20046;-84
2021/07/13 07:44:42;;;;;;;29.05;24.30;;;20.50;98.60;;;;;;5010303;28;20669;-84
2021/07/13 07:47:08;;;;;;;29.13;24.75;;;20.40;98.60;;;;;;4994868;28;20092;-83
2021/07/13 07:49:33;;;;;;;31.08;24.30;;;20.50;98.60;;;;;;4993386;28;20034;-84
2021/07/13 07:51:59;;;;;;;30.10;24.92;;;20.50;98.60;;;;;;4980289;28;20030;-83
2021/07/13 07:54:26;;;;;;;32.05;25.88;;;20.50;98.70;;;;;;4994676;28;20380;-83
2021/07/13 07:56:52;;;;;;;31.58;25.45;;;20.50;98.70;;;;;;5010828;28;20306;-83
2021/07/13 07:59:20;;;;;;;30.67;24.05;;;20.50;98.70;;;;;;5011278;28;20049;-84
2021/07/13 08:01:49;;;;;;;28.88;23.77;;;20.50;98.70;;;;;;4977749;28;20389;-83
2021/07/13 08:04:15;;;;;;;27.58;22.70;;;20.50;98.70;;;;;;4992653;28;20014;-84
2021/07/13 08:06:40;;;;;;;29.48;23.40;;;20.50;98.80;;;;;;5014937;28;20026;-84
2021/07/13 08:09:09;;;;;;;28.55;22.83;;;20.50;98.80;;;;;;4991780;28;20075;-84
2021/07/13 08:11:39;;;;;;;27.55;23.08;;;20.60;98.80;;;;;;5011196;28;20030;-83
2021/07/13 08:14:05;;;;;;;29.23;23.20;;;20.50;98.80;;;;;;5011117;28;20052;-83
2021/07/13 08:16:32;;;;;;;30.75;24.13;;;20.60;98.90;;;;;;5011460;28;20052;-84
2021/07/13 08:18:58;;;;;;;32.38;24.20;;;20.60;98.90;;;;;;5012300;28;20038;-83
2021/07/13 08:21:24;;;;;;;32.40;24.27;;;20.60;98.90;;;;;;4994922;28;20085;-84
2021/07/13 08:23:49;;;;;;;34.00;25.02;;;20.60;98.90;;;;;;5008111;28;20030;-85
2021/07/13 08:26:15;;;;;;;28.83;23.25;;;20.70;98.90;;;;;;5010910;28;20565;-84
2021/07/13 08:28:41;;;;;;;27.48;22.13;;;20.60;98.90;;;;;;4998845;28;20546;-84
2021/07/13 08:31:07;;;;;;;28.05;22.65;;;20.60;99.00;;;;;;5009115;28;20045;-84
2021/07/13 08:33:33;;;;;;;27.63;21.52;;;20.60;99.00;;;;;;5011559;28;20030;-84
2021/07/13 08:35:59;;;;;;;25.20;19.67;;;20.60;99.00;;;;;;4994614;28;20088;-84
2021/07/13 08:38:24;;;;;;;23.00;18.60;;;20.60;99.10;;;;;;4996972;28;20033;-84
2021/07/13 08:40:50;;;;;;;34.30;19.70;;;20.60;99.10;;;;;;5011494;28;20148;-84
2021/07/13 08:43:16;;;;;;;19.80;16.60;;;20.60;99.40;;;;;;4979191;28;20475;-84
2021/07/13 08:45:43;;;;;;;21.77;18.02;;;20.60;99.20;;;;;;4995352;28;20034;-85
2021/07/13 08:48:12;;;;;;;21.17;16.55;;;20.60;99.20;;;;;;5000212;28;20029;-84
2021/07/13 08:50:38;;;;;;;21.45;17.02;;;20.60;99.30;;;;;;5009283;28;20042;-85
2021/07/13 08:53:05;;;;;;;23.88;18.33;;;20.60;99.30;;;;;;4991623;28;20113;-85
2021/07/13 08:55:30;;;;;;;22.02;17.80;;;20.70;99.40;;;;;;4994529;28;20056;-85
2021/07/13 08:57:56;;;;;;;23.15;17.48;;;20.70;99.50;;;;;;5003280;28;20034;-84
2021/07/13 09:00:22;;;;;;;20.98;16.45;;;20.70;99.50;;;;;;5011457;28;20050;-85
2021/07/13 09:03:08;;;;;;;20.92;16.77;;;20.70;99.60;;;;;;4995195;28;20498;-84
2021/07/13 09:05:42;;;;;;;20.48;17.00;;;20.80;99.60;;;;;;5015948;28;20041;-84
2021/07/13 09:08:26;;;;;;;19.55;16.40;;;20.80;99.90;;;;;;5014143;28;20022;-84
2021/07/13 09:11:00;;;;;;;19.48;15.32;;;20.80;99.70;;;;;;4986607;28;20026;-84
2021/07/13 09:13:30;;;;;;;20.58;16.05;;;20.90;99.80;;;;;;4994235;28;20455;-84
2021/07/13 09:15:57;;;;;;;19.80;15.88;;;20.90;99.90;;;;;;4993485;28;20449;-84
2021/07/13 09:18:36;;;;;;;19.27;15.43;;;21.00;99.90;;;;;;5009325;28;20018;-85
2021/07/13 09:21:32;;;;;;;20.60;15.63;;;21.00;99.90;;;;;;5015560;28;20114;-84
2021/07/13 09:24:07;;;;;;;20.52;15.70;;;21.10;99.90;;;;;;5008215;28;20487;-84
2021/07/13 09:26:44;;;;;;;18.63;15.07;;;21.10;99.90;;;;;;5001411;28;20026;-84
2021/07/13 09:29:27;;;;;;;17.60;14.85;;;21.10;99.90;;;;;;4996196;28;20482;-84
2021/07/13 09:31:53;;;;;;;17.40;14.45;;;21.20;99.90;;;;;;5012041;28;20021;-84
2021/07/13 09:34:19;;;;;;;16.90;14.00;;;21.20;99.90;;;;;;5007162;28;20476;-85
2021/07/13 09:36:53;;;;;;;18.13;14.85;;;21.20;99.90;;;;;;4963868;28;20032;-85
2021/07/13 09:39:25;;;;;;;19.63;14.85;;;21.20;99.90;;;;;;4979696;28;20026;-85
2021/07/13 09:41:54;;;;;;;18.45;14.57;;;21.20;99.90;;;;;;4996213;28;20415;-84
2021/07/13 09:44:24;;;;;;;18.83;16.00;;;21.30;99.90;;;;;;4997046;28;20445;-84
2021/07/13 09:46:51;;;;;;;19.75;15.50;;;21.30;99.90;;;;;;4979581;28;20084;-85
2021/07/13 09:49:27;;;;;;;16.98;14.65;;;21.30;99.90;;;;;;4997357;28;20383;-85
2021/07/13 09:51:59;;;;;;;17.52;15.10;;;21.30;99.90;;;;;;4996377;28;20083;-85
2021/07/13 09:54:36;;;;;;;18.98;15.75;;;21.40;99.90;;;;;;5015466;28;20036;-85
2021/07/13 09:57:14;;;;;;;18.88;15.32;;;21.40;99.90;;;;;;5015115;28;20101;-84
2021/07/13 09:59:41;;;;;;;17.20;15.15;;;21.40;99.90;;;;;;5014936;28;20444;-84
2021/07/13 10:02:09;;;;;;;21.13;17.23;;;21.40;99.90;;;;;;4998735;28;20049;-85
2021/07/13 10:04:36;;;;;;;19.48;16.67;;;21.40;99.90;;;;;;5015353;28;20025;-84
2021/07/13 10:07:21;;;;;;;19.23;16.00;;;21.40;99.90;;;;;;5014916;28;20436;-84
2021/07/13 10:09:50;;;;;;;18.42;15.85;;;21.50;99.90;;;;;;4995922;28;20113;-84
2021/07/13 10:12:22;;;;;;;17.95;15.98;;;21.50;99.90;;;;;;4995336;28;20018;-84
2021/07/13 10:14:49;;;;;;;17.55;14.95;;;21.50;99.90;;;;;;4995326;28;20026;-84
2021/07/13 10:17:16;;;;;;;19.33;16.17;;;21.50;99.90;;;;;;4985835;28;20048;-85
2021/07/13 10:19:51;;;;;;;18.23;15.43;;;21.60;99.90;;;;;;5014634;28;20025;-84
2021/07/13 10:22:20;;;;;;;18.17;15.32;;;21.60;99.90;;;;;;5017864;28;20022;-84
2021/07/13 10:24:51;;;;;;;17.13;15.30;;;21.60;99.90;;;;;;4997212;28;20036;-85
2021/07/13 10:27:40;;;;;;;17.83;15.68;;;21.60;99.90;;;;;;4998169;28;20030;-85
2021/07/13 10:30:08;;;;;;;17.67;15.20;;;21.60;99.90;;;;;;5000220;28;20384;-85
2021/07/13 10:32:39;;;;;;;17.42;14.70;;;21.60;99.90;;;;;;4985089;28;20034;-85
2021/07/13 10:35:24;;;;;;;16.73;14.95;;;21.60;99.90;;;;;;5014536;28;20355;-84
2021/07/13 10:37:55;;;;;;;15.85;14.15;;;21.60;99.90;;;;;;5014512;28;20543;-83
2021/07/13 10:40:27;;;;;;;17.02;15.18;;;21.60;99.90;;;;;;5014496;28;20018;-83
2021/07/13 10:43:03;;;;;;;18.75;16.05;;;21.60;99.90;;;;;;5006521;28;20407;-83
2021/07/13 10:45:42;;;;;;;18.08;14.38;;;21.60;99.90;;;;;;4966363;28;20479;-84
2021/07/13 10:48:13;;;;;;;16.10;14.18;;;21.60;99.90;;;;;;5006235;28;20543;-83
2021/07/13 10:50:41;;;;;;;17.58;15.68;;;21.60;99.90;;;;;;5004453;28;20084;-85
2021/07/13 10:53:13;;;;;;;17.92;15.63;;;21.60;99.90;;;;;;5014180;28;20022;-84
2021/07/13 10:55:46;;;;;;;16.65;14.60;;;21.70;99.90;;;;;;5014295;28;20133;-84
2021/07/13 10:58:12;;;;;;;18.83;15.02;;;21.70;99.90;;;;;;5023079;22;20091;-89
2021/07/13 11:00:50;;;;;;;15.90;13.90;;;21.60;99.90;;;;;;5031101;28;20129;-89
2021/07/13 11:05:58;;;;;;;;;;;21.70;99.90;;;;;;5021716;28;20029;-89
2021/07/13 11:08:38;;;;;;;15.55;13.20;;;21.70;99.90;;;;;;5028177;28;19971;-88
2021/07/13 11:11:05;;;;;;;;;;;21.70;99.90;;;;;;5034524;28;20039;-88
2021/07/13 11:13:30;;;;;;;15.70;13.38;;;21.70;99.90;;;;;;5032705;28;19905;-88
2021/07/13 11:15:59;;;;;;;15.75;13.90;;;21.70;99.90;;;;;;5001349;28;20037;-88
2021/07/13 11:18:29;;;;;;;17.92;14.90;;;21.80;99.90;;;;;;5019516;28;20045;-88
2021/07/13 11:20:54;;;;;;;19.93;16.27;;;21.80;99.90;;;;;;5002588;28;20045;-87
2021/07/13 11:23:30;;;;;;;20.40;16.67;;;21.80;99.90;;;;;;5023632;28;20045;-88
2021/07/13 11:26:27;;;;;;;17.75;15.25;;;21.80;99.90;;;;;;5006128;28;20076;-88
2021/07/13 11:28:54;;;;;;;19.38;16.55;;;21.80;99.90;;;;;;5013008;28;20029;-88
2021/07/13 11:31:24;;;;;;;18.45;16.15;;;21.80;99.90;;;;;;5018270;28;20034;-89
2021/07/13 11:34:02;;;;;;;18.93;15.07;;;21.80;99.90;;;;;;5031432;28;20033;-88
2021/07/13 11:36:35;;;;;;;18.48;15.70;;;21.90;99.90;;;;;;5031984;28;20371;-88
2021/07/13 11:39:07;;;;;;;18.52;16.02;;;21.90;99.90;;;;;;5032404;28;20024;-88
2021/07/13 11:41:36;;;;;;;18.42;16.10;;;21.90;99.90;;;;;;5007137;28;20030;-89
2021/07/13 11:44:05;;;;;;;19.00;16.58;;;21.90;99.90;;;;;;5024272;28;20066;-88
2021/07/13 11:46:35;;;;;;;18.95;16.98;;;21.90;99.90;;;;;;5032312;28;20093;-89
2021/07/13 11:49:15;;;;;;;19.83;16.83;;;22.00;99.90;;;;;;5024241;28;20055;-88
2021/07/13 11:51:52;;;;;;;17.80;15.48;;;22.00;99.90;;;;;;5027835;28;20026;-88
2021/07/13 11:54:23;;;;;;;19.27;17.05;;;22.00;99.90;;;;;;5034966;28;20061;-89
2021/07/13 11:56:52;;;;;;;18.27;16.27;;;22.00;99.90;;;;;;5025119;28;20025;-87
2021/07/13 11:59:19;;;;;;;18.83;15.88;;;22.00;99.90;;;;;;5034487;28;20076;-88
2021/07/13 12:01:50;;;;;;;20.83;18.13;;;22.00;99.90;;;;;;5035593;28;20025;-89
2021/07/13 12:04:16;;;;;;;;;;;22.00;99.90;;;;;;5008674;28;20022;-89
2021/07/13 12:06:42;;;;;;;19.45;17.35;;;22.10;99.90;;;;;;5048383;28;19969;-89
2021/07/13 12:09:13;;;;;;;18.80;16.85;;;22.10;99.90;;;;;;5030597;28;20033;-89
2021/07/13 12:11:44;;;;;;;21.40;19.13;;;22.10;99.90;;;;;;5028620;28;20069;-88
2021/07/13 12:14:16;;;;;;;20.75;18.52;;;22.10;99.90;;;;;;5033540;28;20026;-88
2021/07/13 12:16:43;;;;;;;20.52;17.42;;;22.20;99.90;;;;;;5031267;28;20503;-89
2021/07/13 12:19:17;;;;;;;19.80;17.17;;;22.20;99.90;;;;;;5033486;28;20108;-90
2021/07/13 12:21:51;;;;;;;20.60;18.45;;;22.20;99.90;;;;;;5016930;28;20022;-89
2021/07/13 12:24:20;;;;;;;21.25;18.33;;;22.20;99.90;;;;;;5025851;28;20661;-88
2021/07/13 12:26:50;;;;;;;20.60;18.35;;;22.30;99.90;;;;;;5033101;28;20383;-89
2021/07/13 12:29:32;;;;;;;21.08;18.88;;;22.30;99.90;;;;;;5019252;28;20025;-89
2021/07/13 12:32:00;;;;;;;20.92;18.67;;;22.30;99.90;;;;;;5030815;28;20083;-88
2021/07/13 12:34:31;;;;;;;20.33;18.20;;;22.30;99.90;;;;;;5030003;28;20028;-89
2021/07/13 12:37:02;;;;;;;;;;;22.30;99.90;;;;;;5028431;28;20543;-89
2021/07/13 12:39:28;;;;;;;17.85;15.98;;;22.30;99.90;;;;;;5028141;28;19915;-88